sensor_id;sensor_type;location;lat;lon;timestamp;pressure;altitude;pressure_sealevel;temperature;humidity
22440;BME280;11387;51.612;7.210;2023-05-09T00:00:16;100949.59;;;14.34;95.70
22440;BME280;11387;51.612;7.210;2023-05-09T00:02:45;100938.72;;;14.29;95.91
22440;BME280;11387;51.612;7.210;2023-05-09T00:05:14;100946.00;;;14.25;96.41
22440;BME280;11387;51.612;7.210;2023-05-09T00:07:42;100941.75;;;14.19;96.69
22440;BME280;11387;51.612;7.210;2023-05-09T00:10:11;100944.31;;;14.15;96.96
22440;BME280;11387;51.612;7.210;2023-05-09T00:12:42;100940.25;;;14.13;97.06
22440;BME280;11387;51.612;7.210;2023-05-09T00:15:11;100932.09;;;14.08;97.50
22440;BME280;11387;51.612;7.210;2023-05-09T00:17:56;100933.41;;;14.02;97.81
22440;BME280;11387;51.612;7.210;2023-05-09T00:20:25;100935.16;;;13.98;98.18
22440;BME280;11387;51.612;7.210;2023-05-09T00:22:53;100936.78;;;13.99;98.46
22440;BME280;11387;51.612;7.210;2023-05-09T00:25:22;100928.13;;;13.92;98.58
22440;BME280;11387;51.612;7.210;2023-05-09T00:27:50;100921.63;;;13.88;98.86
22440;BME280;11387;51.612;7.210;2023-05-09T00:30:19;100925.50;;;13.87;99.20
22440;BME280;11387;51.612;7.210;2023-05-09T00:32:47;100914.63;;;13.81;99.47
22440;BME280;11387;51.612;7.210;2023-05-09T00:35:17;100912.00;;;13.76;99.76
22440;BME280;11387;51.612;7.210;2023-05-09T00:37:47;100916.75;;;13.85;99.77
22440;BME280;11387;51.612;7.210;2023-05-09T00:40:15;100911.88;;;13.81;99.95
22440;BME280;11387;51.612;7.210;2023-05-09T00:42:46;100907.50;;;13.80;99.79
22440;BME280;11387;51.612;7.210;2023-05-09T00:45:15;100904.41;;;13.73;100.00
22440;BME280;11387;51.612;7.210;2023-05-09T00:47:46;100891.41;;;13.65;100.00
22440;BME280;11387;51.612;7.210;2023-05-09T00:50:15;100888.16;;;13.63;100.00
22440;BME280;11387;51.612;7.210;2023-05-09T00:52:47;100885.53;;;13.58;100.00
22440;BME280;11387;51.612;7.210;2023-05-09T00:55:15;100877.78;;;13.60;100.00
22440;BME280;11387;51.612;7.210;2023-05-09T00:57:44;100875.34;;;13.59;100.00
22440;BME280;11387;51.612;7.210;2023-05-09T01:00:13;100872.72;;;13.54;100.00
22440;BME280;11387;51.612;7.210;2023-05-09T01:02:43;100868.66;;;13.51;100.00
22440;BME280;11387;51.612;7.210;2023-05-09T01:05:11;100871.91;;;13.53;100.00
22440;BME280;11387;51.612;7.210;2023-05-09T01:07:42;100870.88;;;13.49;100.00
22440;BME280;11387;51.612;7.210;2023-05-09T01:10:15;100869.47;;;13.52;100.00
22440;BME280;11387;51.612;7.210;2023-05-09T01:12:52;100864.16;;;13.55;100.00
22440;BME280;11387;51.612;7.210;2023-05-09T01:15:23;100866.34;;;13.67;100.00
22440;BME280;11387;51.612;7.210;2023-05-09T01:17:59;100864.44;;;13.76;100.00
22440;BME280;11387;51.612;7.210;2023-05-09T01:20:29;100867.25;;;13.85;100.00
22440;BME280;11387;51.612;7.210;2023-05-09T01:23:11;100858.88;;;13.90;100.00
22440;BME280;11387;51.612;7.210;2023-05-09T01:25:56;100856.44;;;13.88;100.00
22440;BME280;11387;51.612;7.210;2023-05-09T01:28:46;100845.63;;;13.92;99.86
22440;BME280;11387;51.612;7.210;2023-05-09T01:31:20;100843.31;;;13.85;99.85
22440;BME280;11387;51.612;7.210;2023-05-09T01:33:49;100846.66;;;13.73;100.00
22440;BME280;11387;51.612;7.210;2023-05-09T01:36:19;100837.72;;;13.68;100.00
22440;BME280;11387;51.612;7.210;2023-05-09T01:38:49;100838.22;;;13.70;100.00
22440;BME280;11387;51.612;7.210;2023-05-09T01:41:19;100837.59;;;13.73;100.00
22440;BME280;11387;51.612;7.210;2023-05-09T01:43:49;100828.03;;;13.70;100.00
22440;BME280;11387;51.612;7.210;2023-05-09T01:46:20;100838.66;;;13.63;100.00
22440;BME280;11387;51.612;7.210;2023-05-09T01:48:49;100830.41;;;13.63;100.00
22440;BME280;11387;51.612;7.210;2023-05-09T01:51:18;100830.72;;;13.62;100.00
22440;BME280;11387;51.612;7.210;2023-05-09T01:53:47;100830.84;;;13.57;100.00
22440;BME280;11387;51.612;7.210;2023-05-09T01:56:16;100829.19;;;13.78;100.00
22440;BME280;11387;51.612;7.210;2023-05-09T01:58:45;100829.16;;;13.69;100.00
22440;BME280;11387;51.612;7.210;2023-05-09T02:01:16;100824.28;;;13.66;100.00
22440;BME280;11387;51.612;7.210;2023-05-09T02:03:49;100822.97;;;13.64;100.00
22440;BME280;11387;51.612;7.210;2023-05-09T02:06:19;100825.53;;;13.60;100.00
22440;BME280;11387;51.612;7.210;2023-05-09T02:08:48;100822.59;;;13.57;100.00
22440;BME280;11387;51.612;7.210;2023-05-09T02:11:16;100816.59;;;13.55;100.00
22440;BME280;11387;51.612;7.210;2023-05-09T02:13:45;100812.03;;;13.50;100.00
22440;BME280;11387;51.612;7.210;2023-05-09T02:16:13;100813.03;;;13.54;100.00
22440;BME280;11387;51.612;7.210;2023-05-09T02:18:42;100815.28;;;13.52;100.00
22440;BME280;11387;51.612;7.210;2023-05-09T02:21:12;100820.78;;;13.52;100.00
22440;BME280;11387;51.612;7.210;2023-05-09T02:23:40;100818.72;;;13.58;100.00
22440;BME280;11387;51.612;7.210;2023-05-09T02:26:09;100824.78;;;13.68;100.00
22440;BME280;11387;51.612;7.210;2023-05-09T02:28:37;100820.00;;;13.82;99.68
22440;BME280;11387;51.612;7.210;2023-05-09T02:31:06;100821.63;;;13.83;99.09
22440;BME280;11387;51.612;7.210;2023-05-09T02:33:35;100814.94;;;13.76;99.24
22440;BME280;11387;51.612;7.210;2023-05-09T02:36:05;100817.22;;;13.74;99.21
22440;BME280;11387;51.612;7.210;2023-05-09T02:38:35;100814.63;;;13.77;99.03
22440;BME280;11387;51.612;7.210;2023-05-09T02:41:04;100808.00;;;13.78;98.90
22440;BME280;11387;51.612;7.210;2023-05-09T02:43:33;100816.91;;;13.75;98.91
22440;BME280;11387;51.612;7.210;2023-05-09T02:46:01;100823.88;;;13.81;98.89
22440;BME280;11387;51.612;7.210;2023-05-09T02:48:30;100815.50;;;13.87;98.40
22440;BME280;11387;51.612;7.210;2023-05-09T02:50:58;100816.00;;;13.89;98.16
22440;BME280;11387;51.612;7.210;2023-05-09T02:53:27;100813.06;;;13.85;98.36
22440;BME280;11387;51.612;7.210;2023-05-09T02:56:00;100817.13;;;13.88;98.35
22440;BME280;11387;51.612;7.210;2023-05-09T02:58:30;100825.06;;;13.89;98.35
22440;BME280;11387;51.612;7.210;2023-05-09T03:00:58;100812.44;;;13.88;98.53
22440;BME280;11387;51.612;7.210;2023-05-09T03:03:26;100810.00;;;13.87;98.31
22440;BME280;11387;51.612;7.210;2023-05-09T03:05:55;100801.75;;;13.87;98.24
22440;BME280;11387;51.612;7.210;2023-05-09T03:08:24;100805.13;;;13.83;98.65
22440;BME280;11387;51.612;7.210;2023-05-09T03:10:52;100807.38;;;13.81;98.77
22440;BME280;11387;51.612;7.210;2023-05-09T03:13:22;100802.19;;;13.80;98.97
22440;BME280;11387;51.612;7.210;2023-05-09T03:15:50;100801.69;;;13.78;99.27
22440;BME280;11387;51.612;7.210;2023-05-09T03:18:19;100799.94;;;13.82;99.08
22440;BME280;11387;51.612;7.210;2023-05-09T03:20:47;100797.69;;;13.84;98.88
22440;BME280;11387;51.612;7.210;2023-05-09T03:23:15;100786.50;;;13.80;99.29
22440;BME280;11387;51.612;7.210;2023-05-09T03:25:44;100790.06;;;13.81;99.39
22440;BME280;11387;51.612;7.210;2023-05-09T03:28:12;100788.00;;;13.87;99.34
22440;BME280;11387;51.612;7.210;2023-05-09T03:30:42;100787.19;;;13.86;99.17
22440;BME280;11387;51.612;7.210;2023-05-09T03:33:10;100785.47;;;13.99;98.29
22440;BME280;11387;51.612;7.210;2023-05-09T03:35:38;100785.03;;;14.14;97.41
22440;BME280;11387;51.612;7.210;2023-05-09T03:38:07;100778.03;;;14.08;97.46
22440;BME280;11387;51.612;7.210;2023-05-09T03:40:36;100775.47;;;14.03;97.84
22440;BME280;11387;51.612;7.210;2023-05-09T03:43:05;100774.16;;;14.09;97.39
22440;BME280;11387;51.612;7.210;2023-05-09T03:45:33;100781.16;;;14.15;97.20
22440;BME280;11387;51.612;7.210;2023-05-09T03:48:06;100771.00;;;14.24;97.04
22440;BME280;11387;51.612;7.210;2023-05-09T03:50:35;100776.50;;;14.24;96.73
22440;BME280;11387;51.612;7.210;2023-05-09T03:53:04;100775.72;;;14.32;96.17
22440;BME280;11387;51.612;7.210;2023-05-09T03:55:32;100772.66;;;14.34;95.93
22440;BME280;11387;51.612;7.210;2023-05-09T03:58:01;100775.75;;;14.41;95.66
22440;BME280;11387;51.612;7.210;2023-05-09T04:00:29;100764.72;;;14.41;95.56
22440;BME280;11387;51.612;7.210;2023-05-09T04:02:58;100772.16;;;14.40;95.99
22440;BME280;11387;51.612;7.210;2023-05-09T04:05:28;100768.16;;;14.46;95.74
22440;BME280;11387;51.612;7.210;2023-05-09T04:08:09;100769.78;;;14.47;95.30
22440;BME280;11387;51.612;7.210;2023-05-09T04:10:38;100762.19;;;14.53;95.39
22440;BME280;11387;51.612;7.210;2023-05-09T04:13:06;100766.06;;;14.52;95.24
22440;BME280;11387;51.612;7.210;2023-05-09T04:15:34;100767.22;;;14.60;94.68
22440;BME280;11387;51.612;7.210;2023-05-09T04:18:03;100756.19;;;14.60;94.79
22440;BME280;11387;51.612;7.210;2023-05-09T04:20:33;100753.94;;;14.62;94.26
22440;BME280;11387;51.612;7.210;2023-05-09T04:23:02;100754.75;;;14.62;94.41
22440;BME280;11387;51.612;7.210;2023-05-09T04:25:30;100748.44;;;14.62;94.33
22440;BME280;11387;51.612;7.210;2023-05-09T04:27:58;100749.72;;;14.56;94.66
22440;BME280;11387;51.612;7.210;2023-05-09T04:30:27;100748.25;;;14.58;94.70
22440;BME280;11387;51.612;7.210;2023-05-09T04:32:55;100745.97;;;14.69;94.10
22440;BME280;11387;51.612;7.210;2023-05-09T04:35:24;100740.16;;;14.62;94.73
22440;BME280;11387;51.612;7.210;2023-05-09T04:37:54;100740.16;;;14.62;94.76
22440;BME280;11387;51.612;7.210;2023-05-09T04:40:22;100737.06;;;14.72;94.62
22440;BME280;11387;51.612;7.210;2023-05-09T04:43:00;100732.72;;;14.62;94.88
22440;BME280;11387;51.612;7.210;2023-05-09T04:45:29;100734.03;;;14.65;94.95
22440;BME280;11387;51.612;7.210;2023-05-09T04:47:58;100731.41;;;14.77;94.21
22440;BME280;11387;51.612;7.210;2023-05-09T04:50:26;100733.19;;;14.73;94.52
22440;BME280;11387;51.612;7.210;2023-05-09T04:52:56;100728.00;;;14.80;94.43
22440;BME280;11387;51.612;7.210;2023-05-09T04:55:24;100730.28;;;14.78;94.63
22440;BME280;11387;51.612;7.210;2023-05-09T04:57:53;100726.41;;;14.79;94.39
22440;BME280;11387;51.612;7.210;2023-05-09T05:00:21;100725.09;;;14.85;94.50
22440;BME280;11387;51.612;7.210;2023-05-09T05:02:50;100720.25;;;14.82;94.20
22440;BME280;11387;51.612;7.210;2023-05-09T05:05:18;100724.63;;;14.83;94.31
22440;BME280;11387;51.612;7.210;2023-05-09T05:07:51;100725.91;;;14.86;94.18
22440;BME280;11387;51.612;7.210;2023-05-09T05:10:21;100720.56;;;14.89;94.02
22440;BME280;11387;51.612;7.210;2023-05-09T05:12:50;100718.63;;;14.81;94.43
22440;BME280;11387;51.612;7.210;2023-05-09T05:15:18;100717.81;;;14.80;94.53
22440;BME280;11387;51.612;7.210;2023-05-09T05:17:47;100717.00;;;14.80;94.73
22440;BME280;11387;51.612;7.210;2023-05-09T05:20:15;100699.50;;;14.85;94.68
22440;BME280;11387;51.612;7.210;2023-05-09T05:22:44;100704.69;;;14.86;94.90
22440;BME280;11387;51.612;7.210;2023-05-09T05:25:12;100704.53;;;14.91;94.77
22440;BME280;11387;51.612;7.210;2023-05-09T05:27:42;100707.56;;;14.98;93.73
22440;BME280;11387;51.612;7.210;2023-05-09T05:30:11;100706.13;;;15.01;93.85
22440;BME280;11387;51.612;7.210;2023-05-09T05:32:41;100708.25;;;14.95;93.92
22440;BME280;11387;51.612;7.210;2023-05-09T05:35:10;100710.16;;;15.03;93.48
22440;BME280;11387;51.612;7.210;2023-05-09T05:37:39;100710.16;;;15.03;93.75
22440;BME280;11387;51.612;7.210;2023-05-09T05:40:08;100711.13;;;15.07;93.69
22440;BME280;11387;51.612;7.210;2023-05-09T05:42:37;100711.78;;;15.13;93.47
22440;BME280;11387;51.612;7.210;2023-05-09T05:45:09;100701.88;;;15.21;93.41
22440;BME280;11387;51.612;7.210;2023-05-09T05:47:38;100700.91;;;15.25;92.94
22440;BME280;11387;51.612;7.210;2023-05-09T05:50:07;100690.69;;;15.26;92.79
22440;BME280;11387;51.612;7.210;2023-05-09T05:52:39;100693.25;;;15.31;92.41
22440;BME280;11387;51.612;7.210;2023-05-09T05:55:11;100693.25;;;15.31;92.53
22440;BME280;11387;51.612;7.210;2023-05-09T05:57:40;100702.78;;;15.42;91.96
22440;BME280;11387;51.612;7.210;2023-05-09T06:00:11;100697.75;;;15.44;91.80
22440;BME280;11387;51.612;7.210;2023-05-09T06:02:41;100691.28;;;15.40;91.37
22440;BME280;11387;51.612;7.210;2023-05-09T06:05:10;100693.53;;;15.46;91.72
22440;BME280;11387;51.612;7.210;2023-05-09T06:07:39;100693.06;;;15.44;91.76
22440;BME280;11387;51.612;7.210;2023-05-09T06:10:10;100689.31;;;15.58;90.77
22440;BME280;11387;51.612;7.210;2023-05-09T06:12:38;100688.78;;;15.64;90.29
22440;BME280;11387;51.612;7.210;2023-05-09T06:15:07;100684.53;;;15.75;90.27
22440;BME280;11387;51.612;7.210;2023-05-09T06:17:37;100683.69;;;15.83;90.09
22440;BME280;11387;51.612;7.210;2023-05-09T06:20:06;100679.69;;;16.02;89.27
22440;BME280;11387;51.612;7.210;2023-05-09T06:22:39;100671.56;;;16.26;88.06
22440;BME280;11387;51.612;7.210;2023-05-09T06:25:07;100667.44;;;16.53;86.03
22440;BME280;11387;51.612;7.210;2023-05-09T06:27:36;100660.75;;;16.96;83.45
22440;BME280;11387;51.612;7.210;2023-05-09T06:30:05;100659.25;;;17.43;80.62
22440;BME280;11387;51.612;7.210;2023-05-09T06:32:53;100659.66;;;17.91;78.51
22440;BME280;11387;51.612;7.210;2023-05-09T06:35:21;100650.66;;;17.94;78.36
22440;BME280;11387;51.612;7.210;2023-05-09T06:37:50;100655.50;;;17.84;77.91
22440;BME280;11387;51.612;7.210;2023-05-09T06:40:21;100643.28;;;17.73;78.31
22440;BME280;11387;51.612;7.210;2023-05-09T06:42:50;100645.09;;;17.57;78.95
22440;BME280;11387;51.612;7.210;2023-05-09T06:45:19;100636.72;;;17.66;78.48
22440;BME280;11387;51.612;7.210;2023-05-09T06:47:47;100639.69;;;17.85;78.54
22440;BME280;11387;51.612;7.210;2023-05-09T06:50:17;100636.25;;;17.88;78.39
22440;BME280;11387;51.612;7.210;2023-05-09T06:52:46;100641.56;;;17.69;78.88
22440;BME280;11387;51.612;7.210;2023-05-09T06:55:15;100632.97;;;17.49;79.24
22440;BME280;11387;51.612;7.210;2023-05-09T06:57:46;100635.16;;;17.32;80.02
22440;BME280;11387;51.612;7.210;2023-05-09T07:00:15;100621.22;;;17.28;81.09
22440;BME280;11387;51.612;7.210;2023-05-09T07:02:44;100614.31;;;17.59;79.81
22440;BME280;11387;51.612;7.210;2023-05-09T07:05:13;100627.59;;;17.90;78.83
22440;BME280;11387;51.612;7.210;2023-05-09T07:07:44;100618.44;;;18.13;77.40
22440;BME280;11387;51.612;7.210;2023-05-09T07:10:12;100618.66;;;18.21;77.02
22440;BME280;11387;51.612;7.210;2023-05-09T07:12:41;100614.50;;;18.27;76.66
22440;BME280;11387;51.612;7.210;2023-05-09T07:15:09;100612.22;;;18.44;75.63
22440;BME280;11387;51.612;7.210;2023-05-09T07:17:38;100604.34;;;18.59;75.36
22440;BME280;11387;51.612;7.210;2023-05-09T07:20:07;100596.53;;;18.48;74.79
22440;BME280;11387;51.612;7.210;2023-05-09T07:22:35;100593.84;;;18.52;75.59
22440;BME280;11387;51.612;7.210;2023-05-09T07:25:07;100594.25;;;18.38;75.78
22440;BME280;11387;51.612;7.210;2023-05-09T07:27:35;100583.25;;;18.14;76.30
22440;BME280;11387;51.612;7.210;2023-05-09T07:30:04;100584.00;;;17.99;77.03
22440;BME280;11387;51.612;7.210;2023-05-09T07:32:33;100585.50;;;17.96;77.61
22440;BME280;11387;51.612;7.210;2023-05-09T07:35:02;100586.09;;;17.77;78.79
22440;BME280;11387;51.612;7.210;2023-05-09T07:37:31;100581.13;;;17.83;78.94
22440;BME280;11387;51.612;7.210;2023-05-09T07:40:01;100579.28;;;17.75;78.83
22440;BME280;11387;51.612;7.210;2023-05-09T07:42:33;100574.53;;;18.00;78.19
22440;BME280;11387;51.612;7.210;2023-05-09T07:45:02;100568.56;;;18.26;77.26
22440;BME280;11387;51.612;7.210;2023-05-09T07:47:33;100565.59;;;18.46;75.97
22440;BME280;11387;51.612;7.210;2023-05-09T07:50:14;100565.69;;;18.78;75.01
22440;BME280;11387;51.612;7.210;2023-05-09T07:52:44;100564.38;;;18.88;74.43
22440;BME280;11387;51.612;7.210;2023-05-09T07:55:13;100550.00;;;19.13;72.78
22440;BME280;11387;51.612;7.210;2023-05-09T07:57:43;100554.91;;;19.04;72.88
22440;BME280;11387;51.612;7.210;2023-05-09T08:00:11;100547.91;;;19.42;71.54
22440;BME280;11387;51.612;7.210;2023-05-09T08:02:41;100544.03;;;19.62;71.14
22440;BME280;11387;51.612;7.210;2023-05-09T08:05:09;100539.38;;;19.66;70.52
22440;BME280;11387;51.612;7.210;2023-05-09T08:07:40;100531.34;;;20.15;68.45
22440;BME280;11387;51.612;7.210;2023-05-09T08:10:08;100532.56;;;19.99;68.53
22440;BME280;11387;51.612;7.210;2023-05-09T08:12:37;100529.38;;;20.16;68.50
22440;BME280;11387;51.612;7.210;2023-05-09T08:15:07;100520.84;;;19.90;68.41
22440;BME280;11387;51.612;7.210;2023-05-09T08:17:36;100526.00;;;20.07;67.86
22440;BME280;11387;51.612;7.210;2023-05-09T08:20:05;100523.38;;;20.14;67.51
22440;BME280;11387;51.612;7.210;2023-05-09T08:22:35;100521.09;;;20.00;67.60
22440;BME280;11387;51.612;7.210;2023-05-09T08:25:03;100505.41;;;19.38;69.70
22440;BME280;11387;51.612;7.210;2023-05-09T08:27:33;100510.19;;;19.22;70.71
22440;BME280;11387;51.612;7.210;2023-05-09T08:30:06;100513.91;;;19.45;69.87
22440;BME280;11387;51.612;7.210;2023-05-09T08:32:48;100513.63;;;20.24;67.85
22440;BME280;11387;51.612;7.210;2023-05-09T08:35:16;100505.22;;;20.59;65.55
22440;BME280;11387;51.612;7.210;2023-05-09T08:37:45;100503.41;;;20.47;65.82
22440;BME280;11387;51.612;7.210;2023-05-09T08:40:14;100501.50;;;20.32;65.72
22440;BME280;11387;51.612;7.210;2023-05-09T08:42:43;100503.47;;;19.93;66.93
22440;BME280;11387;51.612;7.210;2023-05-09T08:45:13;100493.75;;;20.22;66.12
22440;BME280;11387;51.612;7.210;2023-05-09T08:47:42;100508.00;;;20.20;65.86
22440;BME280;11387;51.612;7.210;2023-05-09T08:50:13;100495.09;;;20.08;66.25
22440;BME280;11387;51.612;7.210;2023-05-09T08:52:43;100489.03;;;19.83;67.00
22440;BME280;11387;51.612;7.210;2023-05-09T08:55:12;100485.66;;;19.74;66.80
22440;BME280;11387;51.612;7.210;2023-05-09T08:57:41;100484.84;;;20.12;66.59
22440;BME280;11387;51.612;7.210;2023-05-09T09:00:10;100489.03;;;20.41;64.71
22440;BME280;11387;51.612;7.210;2023-05-09T09:02:41;100480.25;;;20.01;65.61
22440;BME280;11387;51.612;7.210;2023-05-09T09:05:10;100473.66;;;19.70;65.39
22440;BME280;11387;51.612;7.210;2023-05-09T09:08:00;100478.91;;;19.56;65.52
22440;BME280;11387;51.612;7.210;2023-05-09T09:10:34;100475.59;;;19.86;65.41
22440;BME280;11387;51.612;7.210;2023-05-09T09:13:02;100468.03;;;20.05;64.16
22440;BME280;11387;51.612;7.210;2023-05-09T09:15:33;100472.22;;;20.15;63.97
22440;BME280;11387;51.612;7.210;2023-05-09T09:18:33;100465.41;;;20.12;63.27
22440;BME280;11387;51.612;7.210;2023-05-09T09:21:09;100454.38;;;19.77;63.57
22440;BME280;11387;51.612;7.210;2023-05-09T09:23:42;100453.97;;;19.60;64.41
22440;BME280;11387;51.612;7.210;2023-05-09T09:26:12;100451.97;;;19.76;63.83
22440;BME280;11387;51.612;7.210;2023-05-09T09:28:43;100454.66;;;20.11;62.66
22440;BME280;11387;51.612;7.210;2023-05-09T09:31:18;100443.53;;;20.99;60.88
22440;BME280;11387;51.612;7.210;2023-05-09T09:33:51;100438.06;;;22.63;54.76
22440;BME280;11387;51.612;7.210;2023-05-09T09:36:27;100436.09;;;23.73;52.01
22440;BME280;11387;51.612;7.210;2023-05-09T09:39:01;100432.16;;;23.92;50.98
22440;BME280;11387;51.612;7.210;2023-05-09T09:41:31;100436.84;;;22.57;52.76
22440;BME280;11387;51.612;7.210;2023-05-09T09:44:05;100426.06;;;23.61;50.19
22440;BME280;11387;51.612;7.210;2023-05-09T09:46:40;100413.56;;;24.35;47.68
22440;BME280;11387;51.612;7.210;2023-05-09T09:49:08;100422.34;;;24.44;47.17
22440;BME280;11387;51.612;7.210;2023-05-09T09:51:37;100424.63;;;24.06;48.21
22440;BME280;11387;51.612;7.210;2023-05-09T09:54:07;100414.34;;;24.28;47.05
22440;BME280;11387;51.612;7.210;2023-05-09T09:56:37;100416.00;;;25.00;46.53
22440;BME280;11387;51.612;7.210;2023-05-09T09:59:09;100416.25;;;25.66;44.79
22440;BME280;11387;51.612;7.210;2023-05-09T10:01:54;100393.88;;;25.52;45.07
22440;BME280;11387;51.612;7.210;2023-05-09T10:04:24;100392.03;;;26.01;42.42
22440;BME280;11387;51.612;7.210;2023-05-09T10:06:53;100405.06;;;25.56;42.80
22440;BME280;11387;51.612;7.210;2023-05-09T10:09:24;100381.34;;;25.81;41.89
22440;BME280;11387;51.612;7.210;2023-05-09T10:11:53;100379.19;;;27.14;39.11
22440;BME280;11387;51.612;7.210;2023-05-09T10:14:22;100380.16;;;27.68;37.91
22440;BME280;11387;51.612;7.210;2023-05-09T10:16:53;100375.50;;;26.76;39.85
22440;BME280;11387;51.612;7.210;2023-05-09T10:19:24;100373.44;;;25.55;42.29
22440;BME280;11387;51.612;7.210;2023-05-09T10:21:54;100388.00;;;24.58;44.49
22440;BME280;11387;51.612;7.210;2023-05-09T10:24:59;100371.16;;;24.15;45.52
22440;BME280;11387;51.612;7.210;2023-05-09T10:27:34;100380.94;;;23.56;46.65
22440;BME280;11387;51.612;7.210;2023-05-09T10:30:03;100367.84;;;22.98;47.89
22440;BME280;11387;51.612;7.210;2023-05-09T10:32:41;100357.09;;;23.87;46.28
22440;BME280;11387;51.612;7.210;2023-05-09T10:35:12;100349.16;;;25.13;44.33
22440;BME280;11387;51.612;7.210;2023-05-09T10:37:43;100350.72;;;25.32;42.31
22440;BME280;11387;51.612;7.210;2023-05-09T10:40:13;100343.19;;;25.07;43.83
22440;BME280;11387;51.612;7.210;2023-05-09T10:42:51;100350.75;;;25.25;43.75
22440;BME280;11387;51.612;7.210;2023-05-09T10:45:21;100337.13;;;25.27;43.23
22440;BME280;11387;51.612;7.210;2023-05-09T10:47:53;100341.63;;;24.64;43.83
22440;BME280;11387;51.612;7.210;2023-05-09T10:50:26;100320.41;;;24.84;44.14
22440;BME280;11387;51.612;7.210;2023-05-09T10:53:03;100330.06;;;24.55;43.48
22440;BME280;11387;51.612;7.210;2023-05-09T10:55:54;100321.94;;;25.28;42.93
22440;BME280;11387;51.612;7.210;2023-05-09T10:58:25;100317.97;;;25.11;43.37
22440;BME280;11387;51.612;7.210;2023-05-09T11:00:55;100311.09;;;25.37;42.59
22440;BME280;11387;51.612;7.210;2023-05-09T11:09:30;100306.47;;;25.82;41.23
22440;BME280;11387;51.612;7.210;2023-05-09T11:12:11;100294.19;;;25.58;41.58
22440;BME280;11387;51.612;7.210;2023-05-09T11:14:42;100294.34;;;25.23;42.57
22440;BME280;11387;51.612;7.210;2023-05-09T11:17:12;100290.91;;;24.26;44.76
22440;BME280;11387;51.612;7.210;2023-05-09T11:20:01;100298.09;;;24.63;43.88
22440;BME280;11387;51.612;7.210;2023-05-09T11:22:38;100290.88;;;24.05;44.22
22440;BME280;11387;51.612;7.210;2023-05-09T11:25:08;100289.28;;;24.04;44.96
22440;BME280;11387;51.612;7.210;2023-05-09T11:27:47;100289.22;;;23.65;45.62
22440;BME280;11387;51.612;7.210;2023-05-09T11:30:16;100282.91;;;24.07;43.62
22440;BME280;11387;51.612;7.210;2023-05-09T11:32:45;100291.28;;;24.00;43.78
22440;BME280;11387;51.612;7.210;2023-05-09T11:35:18;100286.88;;;23.92;43.86
22440;BME280;11387;51.612;7.210;2023-05-09T11:37:48;100281.28;;;24.20;44.09
22440;BME280;11387;51.612;7.210;2023-05-09T11:40:17;100274.88;;;23.88;44.75
22440;BME280;11387;51.612;7.210;2023-05-09T11:42:47;100267.72;;;24.01;44.27
22440;BME280;11387;51.612;7.210;2023-05-09T11:45:16;100263.72;;;24.66;42.92
22440;BME280;11387;51.612;7.210;2023-05-09T11:47:45;100258.84;;;24.98;41.73
22440;BME280;11387;51.612;7.210;2023-05-09T11:50:14;100256.44;;;25.00;41.58
22440;BME280;11387;51.612;7.210;2023-05-09T11:52:43;100247.44;;;25.44;40.52
22440;BME280;11387;51.612;7.210;2023-05-09T11:55:12;100243.69;;;26.24;39.55
22440;BME280;11387;51.612;7.210;2023-05-09T11:57:43;100239.56;;;26.39;37.98
22440;BME280;11387;51.612;7.210;2023-05-09T12:00:13;100241.34;;;26.94;37.07
22440;BME280;11387;51.612;7.210;2023-05-09T12:02:43;100246.38;;;27.13;37.12
22440;BME280;11387;51.612;7.210;2023-05-09T12:05:12;100231.66;;;25.72;38.98
22440;BME280;11387;51.612;7.210;2023-05-09T12:07:42;100232.28;;;26.45;37.55
22440;BME280;11387;51.612;7.210;2023-05-09T12:10:11;100222.59;;;25.50;39.01
22440;BME280;11387;51.612;7.210;2023-05-09T12:12:44;100226.75;;;25.21;39.80
22440;BME280;11387;51.612;7.210;2023-05-09T12:15:15;100215.75;;;24.71;40.74
22440;BME280;11387;51.612;7.210;2023-05-09T12:17:44;100226.19;;;23.74;43.20
22440;BME280;11387;51.612;7.210;2023-05-09T12:20:17;100209.69;;;23.27;44.25
22440;BME280;11387;51.612;7.210;2023-05-09T12:22:46;100208.78;;;22.87;45.54
22440;BME280;11387;51.612;7.210;2023-05-09T12:25:22;100201.69;;;22.38;46.37
22440;BME280;11387;51.612;7.210;2023-05-09T12:27:50;100195.78;;;22.47;46.82
22440;BME280;11387;51.612;7.210;2023-05-09T12:30:22;100192.91;;;22.29;46.57
22440;BME280;11387;51.612;7.210;2023-05-09T12:32:51;100193.88;;;22.62;46.29
22440;BME280;11387;51.612;7.210;2023-05-09T12:35:20;100187.72;;;23.07;45.73
22440;BME280;11387;51.612;7.210;2023-05-09T12:37:55;100190.25;;;23.55;44.17
22440;BME280;11387;51.612;7.210;2023-05-09T12:40:27;100188.25;;;23.56;43.54
22440;BME280;11387;51.612;7.210;2023-05-09T12:42:56;100183.50;;;23.74;42.83
22440;BME280;11387;51.612;7.210;2023-05-09T12:45:29;100178.22;;;24.54;42.01
22440;BME280;11387;51.612;7.210;2023-05-09T12:48:00;100194.22;;;24.22;41.48
22440;BME280;11387;51.612;7.210;2023-05-09T12:50:35;100169.41;;;24.56;41.03
22440;BME280;11387;51.612;7.210;2023-05-09T12:53:04;100176.56;;;24.71;40.35
22440;BME280;11387;51.612;7.210;2023-05-09T12:55:37;100164.25;;;24.47;41.13
22440;BME280;11387;51.612;7.210;2023-05-09T12:58:08;100164.00;;;25.14;39.89
22440;BME280;11387;51.612;7.210;2023-05-09T13:00:42;100164.22;;;25.41;39.21
22440;BME280;11387;51.612;7.210;2023-05-09T13:03:21;100155.88;;;24.43;41.12
22440;BME280;11387;51.612;7.210;2023-05-09T13:05:54;100155.13;;;24.32;42.22
22440;BME280;11387;51.612;7.210;2023-05-09T13:08:24;100145.91;;;24.35;41.81
22440;BME280;11387;51.612;7.210;2023-05-09T13:10:53;100148.22;;;24.62;42.08